Thunder radar more information blitzortung!


Radar de pluja more information rain snow radar


Visita la nostra xarxa de llocs de meteo:

Template documentation
and downloads

And another site



No particular awareness of the weather is required.    There are no Weather-warnings

Pagina Historial Weather Underground text

Diari Resum Novembre 17, 2017 Unitats:  Tant    Imperial   Mètric
« Previous Dia
SegĂźent Dia »
Diari Setmana Mensual Anual Personalitzada
  Maxima: Minima: Media:
Temperatura: 64.2 °F /  17.9 °C 38.3 °F /  3.5 °C 54 °F /  12.2 °C
Punt de rosada: 41.2 °F /  5.1 °C 25.5 °F /  -3.6 °C 33.1 °F /  0.6 °C
Humitat: 60 % 39 % 46 %
Wind Speed: 4.6 mph /  7.4 km/h - 1.6 mph /  2.5 km/h
RĂ fegues de vent: 4.6 mph /  7.4 km/h - -
Vent:- - SSE
Pression baro: 30.2 in /  1020.9 hPa 30.1 in /  1017.8 hPa -
Precipitacions: 0 in /  0.0 mm    
Historical Graphs
 
 
Dades de taula per Novembre 17, 2017
Temps Temperatura Punt de rosada Pression baro Vent Wind Speed RĂ fegues de vent Humitat Rainfall Rate (Hourly)
00:00 44.2 °F /  6.8 °C 29.1 °F /  -1.6 °C 30.2 in /  1020.9 hPa NNE 2.3 mph /  3.7 km/h 2.3 mph /  3.7 km/h 55 % 0 in /  0.0 mm
00:05 43.9 °F /  6.6 °C 28.8 °F /  -1.8 °C 30.2 in /  1020.9 hPa Calm     55 % 0 in /  0.0 mm
00:15 38.7 °F /  3.7 °C 25.5 °F /  -3.6 °C 30.1 in /  1019.9 hPa WNW 1 mph /  1.6 km/h 2 mph /  3.2 km/h 59 % 0 in /  0.0 mm
00:25 38.7 °F /  3.7 °C 25.5 °F /  -3.6 °C 30.1 in /  1019.9 hPa WNW 2 mph /  3.2 km/h 2 mph /  3.2 km/h 59 % 0 in /  0.0 mm
00:35 38.5 °F /  3.6 °C 25.9 °F /  -3.4 °C 30.1 in /  1019.9 hPa Calm   2 mph /  3.2 km/h 60 % 0 in /  0.0 mm
00:45 38.5 °F /  3.6 °C 25.9 °F /  -3.4 °C 30.1 in /  1019.9 hPa Calm   2 mph /  3.2 km/h 60 % 0 in /  0.0 mm
00:55 38.5 °F /  3.6 °C 25.9 °F /  -3.4 °C 30.1 in /  1019.9 hPa West 1 mph /  1.6 km/h 2 mph /  3.2 km/h 60 % 0 in /  0.0 mm
01:05 38.5 °F /  3.6 °C 25.9 °F /  -3.4 °C 30.1 in /  1019.9 hPa WSW 1 mph /  1.6 km/h 2 mph /  3.2 km/h 60 % 0 in /  0.0 mm
01:15 38.3 °F /  3.5 °C 25.5 °F /  -3.6 °C 30.1 in /  1019.9 hPa WSW 1 mph /  1.6 km/h 2 mph /  3.2 km/h 60 % 0 in /  0.0 mm
01:25 39 °F /  3.9 °C 25.9 °F /  -3.4 °C 30.1 in /  1019.9 hPa West 1 mph /  1.6 km/h 2 mph /  3.2 km/h 59 % 0 in /  0.0 mm
01:35 39.2 °F /  4.0 °C 26.1 °F /  -3.3 °C 30.1 in /  1019.9 hPa Calm   2 mph /  3.2 km/h 59 % 0 in /  0.0 mm
01:45 38.8 °F /  3.8 °C 26.1 °F /  -3.3 °C 30.1 in /  1019.9 hPa Calm   2 mph /  3.2 km/h 60 % 0 in /  0.0 mm
01:55 39.2 °F /  4.0 °C 26.1 °F /  -3.3 °C 30.1 in /  1019.9 hPa Calm   2 mph /  3.2 km/h 59 % 0 in /  0.0 mm
02:05 39.4 °F /  4.1 °C 26.2 °F /  -3.2 °C 30.1 in /  1019.9 hPa Calm   2 mph /  3.2 km/h 59 % 0 in /  0.0 mm
02:15 40.1 °F /  4.5 °C 27 °F /  -2.8 °C 30.1 in /  1019.9 hPa NW 1 mph /  1.6 km/h   59 % 0 in /  0.0 mm
02:25 40.1 °F /  4.5 °C 27 °F /  -2.8 °C 30.1 in /  1018.8 hPa Calm   2 mph /  3.2 km/h 59 % 0 in /  0.0 mm
02:35 40.5 °F /  4.7 °C 27.1 °F /  -2.7 °C 30.1 in /  1018.8 hPa West 2 mph /  3.2 km/h 3 mph /  4.8 km/h 59 % 0 in /  0.0 mm
02:45 41.2 °F /  5.1 °C 27.9 °F /  -2.3 °C 30.1 in /  1019.9 hPa WSW 1 mph /  1.6 km/h 2 mph /  3.2 km/h 59 % 0 in /  0.0 mm
02:55 42.3 °F /  5.7 °C 28.6 °F /  -1.9 °C 30.1 in /  1019.9 hPa WSW 1 mph /  1.6 km/h 2 mph /  3.2 km/h 58 % 0 in /  0.0 mm
03:05 44.6 °F /  7.0 °C 30.7 °F /  -0.7 °C 30.1 in /  1019.9 hPa Calm   1 mph /  1.6 km/h 58 % 0 in /  0.0 mm
03:15 45.3 °F /  7.4 °C 30.9 °F /  -0.6 °C 30.1 in /  1019.9 hPa NW 1 mph /  1.6 km/h 3 mph /  4.8 km/h 57 % 0 in /  0.0 mm
03:25 45.9 °F /  7.7 °C 30.9 °F /  -0.6 °C 30.2 in /  1020.9 hPa NNE 1 mph /  1.6 km/h 3 mph /  4.8 km/h 56 % 0 in /  0.0 mm
03:35 46.4 °F /  8.0 °C 31.5 °F /  -0.3 °C 30.2 in /  1020.9 hPa NE 1 mph /  1.6 km/h 3 mph /  4.8 km/h 56 % 0 in /  0.0 mm
03:45 47.5 °F /  8.6 °C 32.2 °F /  0.1 °C 30.1 in /  1019.9 hPa NE 1 mph /  1.6 km/h 2 mph /  3.2 km/h 55 % 0 in /  0.0 mm
03:55 48 °F /  8.9 °C 32.2 °F /  0.1 °C 30.2 in /  1020.9 hPa NE 3 mph /  4.8 km/h 3 mph /  4.8 km/h 54 % 0 in /  0.0 mm
04:05 47.7 °F /  8.7 °C 31.8 °F /  -0.1 °C 30.2 in /  1020.9 hPa NE 1 mph /  1.6 km/h 3 mph /  4.8 km/h 54 % 0 in /  0.0 mm
04:15 48.6 °F /  9.2 °C 32.2 °F /  0.1 °C 30.2 in /  1020.9 hPa NE 1 mph /  1.6 km/h 2 mph /  3.2 km/h 53 % 0 in /  0.0 mm
04:25 48.9 °F /  9.4 °C 32.5 °F /  0.3 °C 30.2 in /  1020.9 hPa NNE 1 mph /  1.6 km/h 3 mph /  4.8 km/h 53 % 0 in /  0.0 mm
04:35 50.4 °F /  10.2 °C 33.4 °F /  0.8 °C 30.2 in /  1020.9 hPa NNE 1 mph /  1.6 km/h 2 mph /  3.2 km/h 52 % 0 in /  0.0 mm
06:45 59.9 °F /  15.5 °C 39.6 °F /  4.2 °C 30.1 in /  1019.9 hPa ESE 1 mph /  1.6 km/h 2 mph /  3.2 km/h 47 % 0 in /  0.0 mm
06:55 60.3 °F /  15.7 °C 40.5 °F /  4.7 °C 30.1 in /  1019.9 hPa SE 1 mph /  1.6 km/h 3 mph /  4.8 km/h 48 % 0 in /  0.0 mm
07:45 61.5 °F /  16.4 °C 40.5 °F /  4.7 °C 30.1 in /  1018.8 hPa NNE 1 mph /  1.6 km/h 1 mph /  1.6 km/h 46 % 0 in /  0.0 mm
07:55 61.7 °F /  16.5 °C 40.1 °F /  4.5 °C 30.1 in /  1018.8 hPa NNE 2 mph /  3.2 km/h 4 mph /  6.4 km/h 45 % 0 in /  0.0 mm
10:37 51.1 °F /  10.6 °C 34.2 °F /  1.2 °C 30.2 in /  1020.9 hPa NW 1.2 mph /  1.9 km/h   52 % 0 in /  0.0 mm
10:38 51.1 °F /  10.6 °C 34.2 °F /  1.2 °C 30.1 in /  1019.9 hPa NW 1.4 mph /  2.3 km/h 1.4 mph /  2.3 km/h 52 % 0 in /  0.0 mm
10:39 50.9 °F /  10.5 °C 34 °F /  1.1 °C 30.1 in /  1019.9 hPa NW 2.3 mph /  3.7 km/h 2.3 mph /  3.7 km/h 52 % 0 in /  0.0 mm
10:44 51.3 °F /  10.7 °C 34.2 °F /  1.2 °C 30.1 in /  1019.9 hPa North 1.2 mph /  1.9 km/h 1.2 mph /  1.9 km/h 52 % 0 in /  0.0 mm
10:49 52.2 °F /  11.2 °C 34.5 °F /  1.4 °C 30.2 in /  1020.9 hPa NE 1.2 mph /  1.9 km/h   51 % 0 in /  0.0 mm
10:54 52.3 °F /  11.3 °C 34.7 °F /  1.5 °C 30.2 in /  1020.9 hPa ENE 2.6 mph /  4.2 km/h 2.6 mph /  4.2 km/h 51 % 0 in /  0.0 mm
10:59 52.3 °F /  11.3 °C 34.7 °F /  1.5 °C 30.2 in /  1020.9 hPa NE 2.3 mph /  3.7 km/h 2.3 mph /  3.7 km/h 51 % 0 in /  0.0 mm
11:04 52.9 °F /  11.6 °C 35.2 °F /  1.8 °C 30.2 in /  1020.9 hPa ENE 2.3 mph /  3.7 km/h 2.3 mph /  3.7 km/h 51 % 0 in /  0.0 mm
11:09 52.7 °F /  11.5 °C 35.1 °F /  1.7 °C 30.2 in /  1020.9 hPa East 2.6 mph /  4.2 km/h 2.6 mph /  4.2 km/h 51 % 0 in /  0.0 mm
11:14 53.1 °F /  11.7 °C 35.4 °F /  1.9 °C 30.2 in /  1020.9 hPa NE 2.3 mph /  3.7 km/h 2.3 mph /  3.7 km/h 51 % 0 in /  0.0 mm
11:19 53.8 °F /  12.1 °C 36.1 °F /  2.3 °C 30.2 in /  1020.9 hPa NE 1.6 mph /  2.6 km/h   51 % 0 in /  0.0 mm
11:24 53.4 °F /  11.9 °C 35.2 °F /  1.8 °C 30.2 in /  1020.9 hPa East 2.3 mph /  3.7 km/h 2.6 mph /  4.2 km/h 50 % 0 in /  0.0 mm
11:29 53.8 °F /  12.1 °C 35.6 °F /  2.0 °C 30.2 in /  1020.9 hPa ENE 2.3 mph /  3.7 km/h 2.3 mph /  3.7 km/h 50 % 0 in /  0.0 mm
11:34 54.3 °F /  12.4 °C 36.1 °F /  2.3 °C 30.2 in /  1020.9 hPa ENE 2.3 mph /  3.7 km/h 2.4 mph /  3.9 km/h 50 % 0 in /  0.0 mm
11:39 54.5 °F /  12.5 °C 35.8 °F /  2.1 °C 30.2 in /  1020.9 hPa ENE 2.3 mph /  3.7 km/h 2.3 mph /  3.7 km/h 49 % 0 in /  0.0 mm
11:44 55 °F /  12.8 °C 36.1 °F /  2.3 °C 30.2 in /  1020.9 hPa SE 2.3 mph /  3.7 km/h 2.3 mph /  3.7 km/h 49 % 0 in /  0.0 mm
11:49 55.4 °F /  13.0 °C 36.5 °F /  2.5 °C 30.1 in /  1019.9 hPa NNE 2.3 mph /  3.7 km/h 2.3 mph /  3.7 km/h 49 % 0 in /  0.0 mm
11:54 55.8 °F /  13.2 °C 36.9 °F /  2.7 °C 30.1 in /  1019.9 hPa NE 2.3 mph /  3.7 km/h 2.3 mph /  3.7 km/h 49 % 0 in /  0.0 mm
11:59 56.1 °F /  13.4 °C 36.7 °F /  2.6 °C 30.1 in /  1019.9 hPa ENE 3.5 mph /  5.6 km/h 3.5 mph /  5.6 km/h 48 % 0 in /  0.0 mm
12:04 56.3 °F /  13.5 °C 36.9 °F /  2.7 °C 30.1 in /  1019.9 hPa ENE 2.3 mph /  3.7 km/h 2.3 mph /  3.7 km/h 48 % 0 in /  0.0 mm
12:09 56.8 °F /  13.8 °C 37.2 °F /  2.9 °C 30.1 in /  1019.9 hPa NE 1.4 mph /  2.3 km/h 1.4 mph /  2.3 km/h 48 % 0 in /  0.0 mm
12:14 57.6 °F /  14.2 °C 37.9 °F /  3.3 °C 30.1 in /  1019.9 hPa East 2.3 mph /  3.7 km/h   48 % 0 in /  0.0 mm
12:19 58.5 °F /  14.7 °C 38.8 °F /  3.8 °C 30.1 in /  1019.9 hPa WSW 1.2 mph /  1.9 km/h   48 % 0 in /  0.0 mm
12:24 59.2 °F /  15.1 °C 39.6 °F /  4.2 °C 30.1 in /  1019.9 hPa SE 2.3 mph /  3.7 km/h 2.3 mph /  3.7 km/h 48 % 0 in /  0.0 mm
12:29 59 °F /  15.0 °C 39.4 °F /  4.1 °C 30.1 in /  1019.9 hPa ESE 2.6 mph /  4.2 km/h 2.6 mph /  4.2 km/h 48 % 0 in /  0.0 mm
12:58 61.5 °F /  16.4 °C 41.2 °F /  5.1 °C 30.1 in /  1019.9 hPa Calm   1.1 mph /  1.8 km/h 47 % 0 in /  0.0 mm
13:03 61.2 °F /  16.2 °C 40.8 °F /  4.9 °C 30.1 in /  1019.9 hPa NE 2.3 mph /  3.7 km/h 2.3 mph /  3.7 km/h 47 % 0 in /  0.0 mm
13:08 61.2 °F /  16.2 °C 40.3 °F /  4.6 °C 30.1 in /  1019.9 hPa NNE 3.6 mph /  5.8 km/h 3.6 mph /  5.8 km/h 46 % 0 in /  0.0 mm
13:13 61.3 °F /  16.3 °C 40.5 °F /  4.7 °C 30.1 in /  1019.9 hPa NE 2.3 mph /  3.7 km/h 2.3 mph /  3.7 km/h 46 % 0 in /  0.0 mm
13:18 61 °F /  16.1 °C 39.9 °F /  4.4 °C 30.1 in /  1019.9 hPa North 4.6 mph /  7.4 km/h 4.6 mph /  7.4 km/h 46 % 0 in /  0.0 mm
13:23 61 °F /  16.1 °C 39.9 °F /  4.4 °C 30.1 in /  1019.9 hPa ENE 3.5 mph /  5.6 km/h 3.5 mph /  5.6 km/h 46 % 0 in /  0.0 mm
13:28 61.3 °F /  16.3 °C 40.5 °F /  4.7 °C 30.1 in /  1019.9 hPa North 2.3 mph /  3.7 km/h 2.3 mph /  3.7 km/h 46 % 0 in /  0.0 mm
13:33 61.3 °F /  16.3 °C 40.5 °F /  4.7 °C 30.1 in /  1018.8 hPa NNE 2.3 mph /  3.7 km/h 2.3 mph /  3.7 km/h 46 % 0 in /  0.0 mm
13:57 61.9 °F /  16.6 °C 40.3 °F /  4.6 °C 30.1 in /  1018.8 hPa NE 2.3 mph /  3.7 km/h 2.3 mph /  3.7 km/h 45 % 0 in /  0.0 mm
14:02 62.1 °F /  16.7 °C 39.9 °F /  4.4 °C 30.1 in /  1018.8 hPa ENE 3.5 mph /  5.6 km/h 3.5 mph /  5.6 km/h 44 % 0 in /  0.0 mm
14:07 62.2 °F /  16.8 °C 39.9 °F /  4.4 °C 30.1 in /  1018.8 hPa NNE 4.6 mph /  7.4 km/h 4.6 mph /  7.4 km/h 44 % 0 in /  0.0 mm
14:22 62.6 °F /  17.0 °C 39.7 °F /  4.3 °C 30.1 in /  1018.8 hPa ENE 4.6 mph /  7.4 km/h 4.6 mph /  7.4 km/h 43 % 0 in /  0.0 mm
14:27 62.8 °F /  17.1 °C 39.9 °F /  4.4 °C 30.1 in /  1018.8 hPa NE 3.5 mph /  5.6 km/h 3.5 mph /  5.6 km/h 43 % 0 in /  0.0 mm
14:32 63.1 °F /  17.3 °C 40.3 °F /  4.6 °C 30.1 in /  1018.8 hPa ENE 3.6 mph /  5.8 km/h 3.6 mph /  5.8 km/h 43 % 0 in /  0.0 mm
14:37 63.3 °F /  17.4 °C 40.5 °F /  4.7 °C 30.1 in /  1017.8 hPa NNW 2.3 mph /  3.7 km/h 2.3 mph /  3.7 km/h 43 % 0 in /  0.0 mm
14:42 63.5 °F /  17.5 °C 39.9 °F /  4.4 °C 30.1 in /  1017.8 hPa ENE 3.5 mph /  5.6 km/h 3.5 mph /  5.6 km/h 42 % 0 in /  0.0 mm
14:47 63.9 °F /  17.7 °C 40.3 °F /  4.6 °C 30.1 in /  1017.8 hPa ENE 2.3 mph /  3.7 km/h 2.3 mph /  3.7 km/h 42 % 0 in /  0.0 mm
14:52 64 °F /  17.8 °C 40.5 °F /  4.7 °C 30.1 in /  1018.8 hPa NE 3.1 mph /  5.0 km/h 3.1 mph /  5.0 km/h 42 % 0 in /  0.0 mm
14:57 64.2 °F /  17.9 °C 40.6 °F /  4.8 °C 30.1 in /  1018.8 hPa NNE 3.5 mph /  5.6 km/h 3.5 mph /  5.6 km/h 42 % 0 in /  0.0 mm
15:02 64.2 °F /  17.9 °C 40.6 °F /  4.8 °C 30.1 in /  1017.8 hPa NE 3.5 mph /  5.6 km/h 3.5 mph /  5.6 km/h 42 % 0 in /  0.0 mm
15:07 64 °F /  17.8 °C 40.5 °F /  4.7 °C 30.1 in /  1017.8 hPa ENE 2.3 mph /  3.7 km/h 2.3 mph /  3.7 km/h 42 % 0 in /  0.0 mm
15:12 64 °F /  17.8 °C 40.5 °F /  4.7 °C 30.1 in /  1017.8 hPa NNW 3.5 mph /  5.6 km/h 3.5 mph /  5.6 km/h 42 % 0 in /  0.0 mm
15:17 63.5 °F /  17.5 °C 39.9 °F /  4.4 °C 30.1 in /  1017.8 hPa North 3.5 mph /  5.6 km/h 3.5 mph /  5.6 km/h 42 % 0 in /  0.0 mm
15:22 63.1 °F /  17.3 °C 39.7 °F /  4.3 °C 30.1 in /  1018.8 hPa WNW 1.4 mph /  2.3 km/h 1.4 mph /  2.3 km/h 42 % 0 in /  0.0 mm
15:27 63 °F /  17.2 °C 39.6 °F /  4.2 °C 30.1 in /  1018.8 hPa North 1.2 mph /  1.9 km/h 1.2 mph /  1.9 km/h 42 % 0 in /  0.0 mm
15:32 63 °F /  17.2 °C 39.6 °F /  4.2 °C 30.1 in /  1018.8 hPa NE 2.3 mph /  3.7 km/h 2.3 mph /  3.7 km/h 42 % 0 in /  0.0 mm
15:37 63.1 °F /  17.3 °C 39.7 °F /  4.3 °C 30.1 in /  1017.8 hPa NNE 1.6 mph /  2.6 km/h 1.6 mph /  2.6 km/h 42 % 0 in /  0.0 mm
15:42 63.3 °F /  17.4 °C 39.7 °F /  4.3 °C 30.1 in /  1017.8 hPa NNE 2.3 mph /  3.7 km/h   42 % 0 in /  0.0 mm
15:47 63.5 °F /  17.5 °C 39.9 °F /  4.4 °C 30.1 in /  1017.8 hPa NE 1.2 mph /  1.9 km/h   42 % 0 in /  0.0 mm
15:52 63.5 °F /  17.5 °C 39.4 °F /  4.1 °C 30.1 in /  1017.8 hPa North 2 mph /  3.2 km/h 2 mph /  3.2 km/h 41 % 0 in /  0.0 mm
15:57 63.7 °F /  17.6 °C 40.1 °F /  4.5 °C 30.1 in /  1017.8 hPa Calm     42 % 0 in /  0.0 mm
16:02 63.5 °F /  17.5 °C 39.4 °F /  4.1 °C 30.1 in /  1017.8 hPa NNW 2.3 mph /  3.7 km/h 2.3 mph /  3.7 km/h 41 % 0 in /  0.0 mm
16:07 63.5 °F /  17.5 °C 39.4 °F /  4.1 °C 30.1 in /  1017.8 hPa Calm     41 % 0 in /  0.0 mm
16:13 63.7 °F /  17.6 °C 39.6 °F /  4.2 °C 30.1 in /  1017.8 hPa Calm     41 % 0 in /  0.0 mm
16:18 63.7 °F /  17.6 °C 40.1 °F /  4.5 °C 30.1 in /  1018.8 hPa NNW 1.2 mph /  1.9 km/h 1.2 mph /  1.9 km/h 42 % 0 in /  0.0 mm
16:23 63.7 °F /  17.6 °C 39.6 °F /  4.2 °C 30.1 in /  1018.8 hPa Calm     41 % 0 in /  0.0 mm
16:28 63.5 °F /  17.5 °C 39.4 °F /  4.1 °C 30.1 in /  1018.8 hPa Calm     41 % 0 in /  0.0 mm
16:33 63.3 °F /  17.4 °C 39.2 °F /  4.0 °C 30.1 in /  1018.8 hPa North 1.2 mph /  1.9 km/h   41 % 0 in /  0.0 mm
16:38 63.1 °F /  17.3 °C 39 °F /  3.9 °C 30.1 in /  1018.8 hPa North 0.9 mph /  1.4 km/h   41 % 0 in /  0.0 mm
16:43 62.8 °F /  17.1 °C 38.7 °F /  3.7 °C 30.1 in /  1018.8 hPa Calm     41 % 0 in /  0.0 mm
16:48 62.8 °F /  17.1 °C 38.7 °F /  3.7 °C 30.1 in /  1018.8 hPa NW 1.2 mph /  1.9 km/h 1.2 mph /  1.9 km/h 41 % 0 in /  0.0 mm
16:53 62.6 °F /  17.0 °C 38.7 °F /  3.7 °C 30.1 in /  1018.8 hPa North 2.3 mph /  3.7 km/h 2.3 mph /  3.7 km/h 41 % 0 in /  0.0 mm
16:58 62.2 °F /  16.8 °C 38.1 °F /  3.4 °C 30.1 in /  1018.8 hPa North 1.6 mph /  2.6 km/h 1.6 mph /  2.6 km/h 41 % 0 in /  0.0 mm
17:03 62.1 °F /  16.7 °C 38.1 °F /  3.4 °C 30.1 in /  1018.8 hPa Calm     41 % 0 in /  0.0 mm
17:08 61.7 °F /  16.5 °C 37.8 °F /  3.2 °C 30.1 in /  1018.8 hPa Calm     41 % 0 in /  0.0 mm
17:13 61.3 °F /  16.3 °C 37.4 °F /  3.0 °C 30.1 in /  1018.8 hPa North 0.9 mph /  1.4 km/h   41 % 0 in /  0.0 mm
17:18 61 °F /  16.1 °C 37 °F /  2.8 °C 30.1 in /  1018.8 hPa Calm     41 % 0 in /  0.0 mm
17:23 60.6 °F /  15.9 °C 36.9 °F /  2.7 °C 30.1 in /  1018.8 hPa North 1.2 mph /  1.9 km/h   41 % 0 in /  0.0 mm
17:28 60.3 °F /  15.7 °C 36.3 °F /  2.4 °C 30.1 in /  1018.8 hPa NNW 1.2 mph /  1.9 km/h   41 % 0 in /  0.0 mm
17:33 59.9 °F /  15.5 °C 36.1 °F /  2.3 °C 30.1 in /  1018.8 hPa Calm     41 % 0 in /  0.0 mm
17:38 59.5 °F /  15.3 °C 35.8 °F /  2.1 °C 30.1 in /  1018.8 hPa West 1.4 mph /  2.3 km/h 1.4 mph /  2.3 km/h 41 % 0 in /  0.0 mm
17:43 59.5 °F /  15.3 °C 35.8 °F /  2.1 °C 30.1 in /  1018.8 hPa Calm     41 % 0 in /  0.0 mm
17:48 59.2 °F /  15.1 °C 34.9 °F /  1.6 °C 30.1 in /  1018.8 hPa West 1.2 mph /  1.9 km/h   40 % 0 in /  0.0 mm
17:53 59.2 °F /  15.1 °C 34.9 °F /  1.6 °C 30.1 in /  1018.8 hPa West 1.2 mph /  1.9 km/h   40 % 0 in /  0.0 mm
17:58 58.8 °F /  14.9 °C 34.5 °F /  1.4 °C 30.1 in /  1018.8 hPa Calm     40 % 0 in /  0.0 mm
18:03 58.5 °F /  14.7 °C 34.2 °F /  1.2 °C 30.1 in /  1018.8 hPa West 1.2 mph /  1.9 km/h   40 % 0 in /  0.0 mm
18:08 58.1 °F /  14.5 °C 34 °F /  1.1 °C 30.1 in /  1018.8 hPa WSW 2.3 mph /  3.7 km/h 2.3 mph /  3.7 km/h 40 % 0 in /  0.0 mm
18:13 57.7 °F /  14.3 °C 33.6 °F /  0.9 °C 30.1 in /  1018.8 hPa WSW 1.2 mph /  1.9 km/h   40 % 0 in /  0.0 mm
18:18 57.6 °F /  14.2 °C 33.4 °F /  0.8 °C 30.1 in /  1018.8 hPa WSW 1.4 mph /  2.3 km/h   40 % 0 in /  0.0 mm
18:23 57 °F /  13.9 °C 32.9 °F /  0.5 °C 30.1 in /  1018.8 hPa SW 2.4 mph /  3.9 km/h 2.4 mph /  3.9 km/h 40 % 0 in /  0.0 mm
18:25 46.9 °F /  8.3 °C 27.1 °F /  -2.7 °C 30.1 in /  1019.9 hPa Calm   1 mph /  1.6 km/h 46 % 0 in /  0.0 mm
18:28 56.8 °F /  13.8 °C 32.7 °F /  0.4 °C 30.1 in /  1018.8 hPa WSW 2.3 mph /  3.7 km/h 2.3 mph /  3.7 km/h 40 % 0 in /  0.0 mm
18:33 57 °F /  13.9 °C 32.9 °F /  0.5 °C 30.1 in /  1018.8 hPa SSW 1.2 mph /  1.9 km/h   40 % 0 in /  0.0 mm
18:35 46.8 °F /  8.2 °C 27 °F /  -2.8 °C 30.1 in /  1019.9 hPa West 1 mph /  1.6 km/h 2 mph /  3.2 km/h 46 % 0 in /  0.0 mm
18:38 56.8 °F /  13.8 °C 32.7 °F /  0.4 °C 30.1 in /  1018.8 hPa SW 1.4 mph /  2.3 km/h 1.4 mph /  2.3 km/h 40 % 0 in /  0.0 mm
18:43 57 °F /  13.9 °C 32.9 °F /  0.5 °C 30.1 in /  1018.8 hPa SW 3.1 mph /  5.0 km/h 3.1 mph /  5.0 km/h 40 % 0 in /  0.0 mm
18:45 46.9 °F /  8.3 °C 27.1 °F /  -2.7 °C 30.1 in /  1019.9 hPa WSW 1 mph /  1.6 km/h 2 mph /  3.2 km/h 46 % 0 in /  0.0 mm
18:48 57.2 °F /  14.0 °C 32.4 °F /  0.2 °C 30.1 in /  1018.8 hPa WSW 2.3 mph /  3.7 km/h 2.3 mph /  3.7 km/h 39 % 0 in /  0.0 mm
18:53 57.2 °F /  14.0 °C 32.4 °F /  0.2 °C 30.1 in /  1018.8 hPa West 4.6 mph /  7.4 km/h 4.6 mph /  7.4 km/h 39 % 0 in /  0.0 mm
18:55 46.6 °F /  8.1 °C 27.3 °F /  -2.6 °C 30.1 in /  1018.8 hPa Calm   2 mph /  3.2 km/h 47 % 0 in /  0.0 mm
19:03 56.7 °F /  13.7 °C 32.5 °F /  0.3 °C 30.1 in /  1018.8 hPa WSW 2.3 mph /  3.7 km/h 2.3 mph /  3.7 km/h 40 % 0 in /  0.0 mm
19:05 46 °F /  7.8 °C 27 °F /  -2.8 °C 30.1 in /  1018.8 hPa Calm     47 % 0 in /  0.0 mm
19:08 56.1 °F /  13.4 °C 32.2 °F /  0.1 °C 30.1 in /  1018.8 hPa WSW 1.2 mph /  1.9 km/h 1.2 mph /  1.9 km/h 40 % 0 in /  0.0 mm
19:13 55.8 °F /  13.2 °C 31.3 °F /  -0.4 °C 30.1 in /  1018.8 hPa Calm     39 % 0 in /  0.0 mm
19:15 45.9 °F /  7.7 °C 27.3 °F /  -2.6 °C 30.1 in /  1018.8 hPa SW 2 mph /  3.2 km/h 2 mph /  3.2 km/h 48 % 0 in /  0.0 mm
19:18 55.4 °F /  13.0 °C 30.7 °F /  -0.7 °C 30.1 in /  1018.8 hPa WSW 2.4 mph /  3.9 km/h   39 % 0 in /  0.0 mm
19:23 55.2 °F /  12.9 °C 31.3 °F /  -0.4 °C 30.1 in /  1018.8 hPa WSW 2.9 mph /  4.7 km/h 2.9 mph /  4.7 km/h 40 % 0 in /  0.0 mm
19:25 45.5 °F /  7.5 °C 27 °F /  -2.8 °C 30.1 in /  1018.8 hPa SW 1 mph /  1.6 km/h 2 mph /  3.2 km/h 48 % 0 in /  0.0 mm
19:28 54.9 °F /  12.7 °C 30.9 °F /  -0.6 °C 30.1 in /  1018.8 hPa WSW 2 mph /  3.2 km/h 2 mph /  3.2 km/h 40 % 0 in /  0.0 mm
19:33 54.9 °F /  12.7 °C 30.9 °F /  -0.6 °C 30.1 in /  1018.8 hPa WSW 1.2 mph /  1.9 km/h 1.4 mph /  2.3 km/h 40 % 0 in /  0.0 mm
19:35 54.9 °F /  12.7 °C 30.9 °F /  -0.6 °C 30.1 in /  1018.8 hPa WSW 1.6 mph /  2.6 km/h 1.6 mph /  2.6 km/h 40 % 0 in /  0.0 mm
19:40 54.9 °F /  12.7 °C 30.9 °F /  -0.6 °C 30.1 in /  1018.8 hPa WSW 2 mph /  3.2 km/h 2 mph /  3.2 km/h 40 % 0 in /  0.0 mm
19:45 54.7 °F /  12.6 °C 30.7 °F /  -0.7 °C 30.1 in /  1018.8 hPa WSW 2 mph /  3.2 km/h 2 mph /  3.2 km/h 40 % 0 in /  0.0 mm
19:50 54.5 °F /  12.5 °C 30.6 °F /  -0.8 °C 30.1 in /  1018.8 hPa SW 2.3 mph /  3.7 km/h 2.3 mph /  3.7 km/h 40 % 0 in /  0.0 mm
19:55 54.1 °F /  12.3 °C 30.4 °F /  -0.9 °C 30.1 in /  1018.8 hPa Calm   2 mph /  3.2 km/h 40 % 0 in /  0.0 mm
20:00 53.8 °F /  12.1 °C 30 °F /  -1.1 °C 30.1 in /  1018.8 hPa WSW 2.9 mph /  4.7 km/h 2.9 mph /  4.7 km/h 40 % 0 in /  0.0 mm
20:05 53.6 °F /  12.0 °C 29.8 °F /  -1.2 °C 30.1 in /  1018.8 hPa Calm   3 mph /  4.8 km/h 40 % 0 in /  0.0 mm
20:10 53.4 °F /  11.9 °C 29.7 °F /  -1.3 °C 30.1 in /  1018.8 hPa WSW 2 mph /  3.2 km/h 3 mph /  4.8 km/h 40 % 0 in /  0.0 mm
20:15 53.4 °F /  11.9 °C 29.7 °F /  -1.3 °C 30.1 in /  1018.8 hPa WSW 2.4 mph /  3.9 km/h 2.4 mph /  3.9 km/h 40 % 0 in /  0.0 mm
20:20 53.2 °F /  11.8 °C 29.5 °F /  -1.4 °C 30.1 in /  1018.8 hPa WSW 2.3 mph /  3.7 km/h 2.3 mph /  3.7 km/h 40 % 0 in /  0.0 mm
20:25 53.1 °F /  11.7 °C 30 °F /  -1.1 °C 30.1 in /  1018.8 hPa Calm     41 % 0 in /  0.0 mm
20:30 52.7 °F /  11.5 °C 29.7 °F /  -1.3 °C 30.1 in /  1018.8 hPa WSW 1.2 mph /  1.9 km/h 1.2 mph /  1.9 km/h 41 % 0 in /  0.0 mm
20:35 52.5 °F /  11.4 °C 29.5 °F /  -1.4 °C 30.1 in /  1018.8 hPa Calm     41 % 0 in /  0.0 mm
20:40 52.7 °F /  11.5 °C 29.7 °F /  -1.3 °C 30.1 in /  1018.8 hPa WSW 2.3 mph /  3.7 km/h 2.3 mph /  3.7 km/h 41 % 0 in /  0.0 mm
20:45 52.7 °F /  11.5 °C 29.7 °F /  -1.3 °C 30.1 in /  1018.8 hPa WSW 1.6 mph /  2.6 km/h 1.6 mph /  2.6 km/h 41 % 0 in /  0.0 mm
20:50 52.3 °F /  11.3 °C 29.3 °F /  -1.5 °C 30.1 in /  1018.8 hPa Calm     41 % 0 in /  0.0 mm
20:55 52.2 °F /  11.2 °C 29.1 °F /  -1.6 °C 30.1 in /  1018.8 hPa Calm     41 % 0 in /  0.0 mm
21:00 52 °F /  11.1 °C 28.9 °F /  -1.7 °C 30.1 in /  1018.8 hPa Calm     41 % 0 in /  0.0 mm
21:05 51.8 °F /  11.0 °C 28.8 °F /  -1.8 °C 30.1 in /  1018.8 hPa Calm     41 % 0 in /  0.0 mm
21:10 52 °F /  11.1 °C 28.9 °F /  -1.7 °C 30.1 in /  1018.8 hPa WSW 1.2 mph /  1.9 km/h 1.2 mph /  1.9 km/h 41 % 0 in /  0.0 mm
21:15 52 °F /  11.1 °C 29.7 °F /  -1.3 °C 30.1 in /  1018.8 hPa SSE 2.3 mph /  3.7 km/h 2.3 mph /  3.7 km/h 42 % 0 in /  0.0 mm
21:20 51.8 °F /  11.0 °C 29.5 °F /  -1.4 °C 30.1 in /  1018.8 hPa SSE 1.2 mph /  1.9 km/h 1.2 mph /  1.9 km/h 42 % 0 in /  0.0 mm
21:25 51.8 °F /  11.0 °C 28.8 °F /  -1.8 °C 30.1 in /  1018.8 hPa Calm     41 % 0 in /  0.0 mm
21:30 51.6 °F /  10.9 °C 29.3 °F /  -1.5 °C 30.1 in /  1018.8 hPa ESE 1.2 mph /  1.9 km/h 1.2 mph /  1.9 km/h 42 % 0 in /  0.0 mm
21:35 51.4 °F /  10.8 °C 29.1 °F /  -1.6 °C 30.1 in /  1018.8 hPa Calm     42 % 0 in /  0.0 mm
21:40 51.3 °F /  10.7 °C 28.9 °F /  -1.7 °C 30.1 in /  1018.8 hPa Calm     42 % 0 in /  0.0 mm
21:45 51.4 °F /  10.8 °C 29.1 °F /  -1.6 °C 30.1 in /  1018.8 hPa Calm     42 % 0 in /  0.0 mm
21:50 51.3 °F /  10.7 °C 28.9 °F /  -1.7 °C 30.1 in /  1018.8 hPa SW 2 mph /  3.2 km/h   42 % 0 in /  0.0 mm
21:55 50.4 °F /  10.2 °C 28 °F /  -2.2 °C 30.1 in /  1018.8 hPa WSW 2.4 mph /  3.9 km/h 2.4 mph /  3.9 km/h 42 % 0 in /  0.0 mm
22:00 49.8 °F /  9.9 °C 28.2 °F /  -2.1 °C 30.1 in /  1018.8 hPa WSW 2.3 mph /  3.7 km/h 2.3 mph /  3.7 km/h 43 % 0 in /  0.0 mm
22:05 49.8 °F /  9.9 °C 28.2 °F /  -2.1 °C 30.1 in /  1018.8 hPa WSW 1.2 mph /  1.9 km/h 1.4 mph /  2.3 km/h 43 % 0 in /  0.0 mm
22:10 49.8 °F /  9.9 °C 28.2 °F /  -2.1 °C 30.1 in /  1018.8 hPa WSW 2.3 mph /  3.7 km/h 2.3 mph /  3.7 km/h 43 % 0 in /  0.0 mm
22:15 49.5 °F /  9.7 °C 27.9 °F /  -2.3 °C 30.1 in /  1018.8 hPa SW 2.4 mph /  3.9 km/h 2.4 mph /  3.9 km/h 43 % 0 in /  0.0 mm
22:20 49.3 °F /  9.6 °C 27.7 °F /  -2.4 °C 30.1 in /  1018.8 hPa WSW 2.3 mph /  3.7 km/h 2.3 mph /  3.7 km/h 43 % 0 in /  0.0 mm
22:25 49.1 °F /  9.5 °C 27.5 °F /  -2.5 °C 30.1 in /  1018.8 hPa WSW 2 mph /  3.2 km/h   43 % 0 in /  0.0 mm
22:30 49.3 °F /  9.6 °C 27.7 °F /  -2.4 °C 30.1 in /  1018.8 hPa WSW 2.3 mph /  3.7 km/h 2.3 mph /  3.7 km/h 43 % 0 in /  0.0 mm
22:35 49.1 °F /  9.5 °C 28 °F /  -2.2 °C 30.1 in /  1019.9 hPa WSW 1.2 mph /  1.9 km/h   44 % 0 in /  0.0 mm
22:40 49.1 °F /  9.5 °C 27.5 °F /  -2.5 °C 30.1 in /  1019.9 hPa WSW 2.3 mph /  3.7 km/h 2.4 mph /  3.9 km/h 43 % 0 in /  0.0 mm
22:45 48.7 °F /  9.3 °C 27.9 °F /  -2.3 °C 30.1 in /  1019.9 hPa WSW 2.3 mph /  3.7 km/h 2.3 mph /  3.7 km/h 44 % 0 in /  0.0 mm
22:50 48.2 °F /  9.0 °C 27.3 °F /  -2.6 °C 30.1 in /  1018.8 hPa West 2.3 mph /  3.7 km/h 2.3 mph /  3.7 km/h 44 % 0 in /  0.0 mm
22:55 48.4 °F /  9.1 °C 27.3 °F /  -2.6 °C 30.1 in /  1018.8 hPa WSW 2.3 mph /  3.7 km/h 2.3 mph /  3.7 km/h 44 % 0 in /  0.0 mm
23:00 48.6 °F /  9.2 °C 27.7 °F /  -2.4 °C 30.1 in /  1018.8 hPa WSW 1.4 mph /  2.3 km/h 1.4 mph /  2.3 km/h 44 % 0 in /  0.0 mm
23:05 48.4 °F /  9.1 °C 27.3 °F /  -2.6 °C 30.1 in /  1019.9 hPa WSW 1.2 mph /  1.9 km/h 1.2 mph /  1.9 km/h 44 % 0 in /  0.0 mm
23:10 48.2 °F /  9.0 °C 27.3 °F /  -2.6 °C 30.1 in /  1019.9 hPa WSW 1.2 mph /  1.9 km/h   44 % 0 in /  0.0 mm
23:15 48.2 °F /  9.0 °C 27.3 °F /  -2.6 °C 30.1 in /  1019.9 hPa West 1.2 mph /  1.9 km/h   44 % 0 in /  0.0 mm
23:20 48.4 °F /  9.1 °C 28 °F /  -2.2 °C 30.1 in /  1018.8 hPa WNW 1.2 mph /  1.9 km/h   45 % 0 in /  0.0 mm
23:25 48.4 °F /  9.1 °C 28 °F /  -2.2 °C 30.1 in /  1018.8 hPa Calm     45 % 0 in /  0.0 mm
23:30 48.4 °F /  9.1 °C 28 °F /  -2.2 °C 30.1 in /  1018.8 hPa WNW 2.3 mph /  3.7 km/h 2.3 mph /  3.7 km/h 45 % 0 in /  0.0 mm
23:35 48.4 °F /  9.1 °C 28 °F /  -2.2 °C 30.1 in /  1019.9 hPa WNW 2 mph /  3.2 km/h 2 mph /  3.2 km/h 45 % 0 in /  0.0 mm
23:40 48.4 °F /  9.1 °C 28 °F /  -2.2 °C 30.1 in /  1019.9 hPa WNW 1.2 mph /  1.9 km/h   45 % 0 in /  0.0 mm
23:45 48.6 °F /  9.2 °C 28.2 °F /  -2.1 °C 30.1 in /  1019.9 hPa WNW 1.4 mph /  2.3 km/h 1.4 mph /  2.3 km/h 45 % 0 in /  0.0 mm
23:50 48.6 °F /  9.2 °C 28.2 °F /  -2.1 °C 30.1 in /  1019.9 hPa WNW 2.3 mph /  3.7 km/h 2.3 mph /  3.7 km/h 45 % 0 in /  0.0 mm
23:55 48.4 °F /  9.1 °C 28 °F /  -2.2 °C 30.1 in /  1019.9 hPa WNW 1.2 mph /  1.9 km/h 1.2 mph /  1.9 km/h 45 % 0 in /  0.0 mm
Meteo Sesrovires
Elogis d' Weather Underground - 3.5 mb

Guio original per  Jim McMurry - jmcmurry@mwt.net Adaptat per a la plantilla per  Wim van der Kuil - Leuven-Template.eu

Trobareu la nostra informacio del temps tambe a:

Weather Underground

AWEKAS